Terminal Aerodrome Forecast
Issued by NWS

Home | Current Version | Previous Version | Text Only | Print | Product List | Glossary On
Versions: 1 2 3 4 5 6 7 8 9 10 11 12 13 14 15
000
FTUS46 KMTR 211132 AAA
TAFOAK
TAF AMD
KOAK 211132Z 2112/2218 09008KT P6SM FEW050 BKN100
     FM212000 25004KT P6SM FEW012 BKN250
     FM220000 34006KT P6SM FEW012
     FM220300 VRB04KT P6SM SCT012 BKN100
     FM220900 VRB04KT P6SM BKN040
     FM221700 VRB04KT P6SM FEW040=

USA.gov is the U.S. government's official web portal to all federal, state and local government web resources and services.